Time;durP1;ratioP1;P1;durP2;ratioP2;P2;SDS_P1;SDS_P2;PMS_P1;PMS_P2;Temp;Humidity;BMP_temperature;BMP_pressure;BME280_temperature;BME280_humidity;BME280_pressure;Samples;Min_cycle;Max_cycle;Signal;HPM_P1;HPM_P2
2022/07/16 00:02:21;;;;;;;3.83;2.70;;;;;;;18.82;65.94;94714.94;5059248;28;20240;-75
2022/07/16 00:04:48;;;;;;;4.07;2.30;;;;;;;18.76;66.66;94721.91;5065546;28;20627;-75
2022/07/16 00:07:14;;;;;;;4.20;1.88;;;;;;;18.77;66.58;94724.28;5065378;28;20199;-74
2022/07/16 00:09:43;;;;;;;6.88;2.55;;;;;;;18.78;66.16;94714.09;5058861;28;20252;-75
2022/07/16 00:12:10;;;;;;;3.88;2.50;;;;;;;18.85;66.85;94714.19;5059259;28;20305;-75
2022/07/16 00:14:36;;;;;;;3.30;2.08;;;;;;;18.77;67.18;94718.00;5052077;28;20254;-75
2022/07/16 00:17:04;;;;;;;3.83;2.38;;;;;;;18.65;66.66;94715.53;5052202;28;20195;-75
2022/07/16 00:19:30;;;;;;;4.90;2.25;;;;;;;18.64;66.82;94713.97;5052105;28;20359;-75
2022/07/16 00:21:58;;;;;;;6.80;1.92;;;;;;;18.62;66.58;94708.06;5052305;28;20242;-75
2022/07/16 00:24:26;;;;;;;5.00;2.90;;;;;;;18.61;66.56;94711.97;5051972;28;20208;-75
2022/07/16 00:26:54;;;;;;;2.60;1.90;;;;;;;18.58;66.97;94705.28;5051759;28;20251;-75
2022/07/16 00:29:23;;;;;;;3.08;2.10;;;;;;;18.47;67.74;94710.63;5051657;28;20253;-75
2022/07/16 00:31:51;;;;;;;4.03;1.88;;;;;;;18.42;66.82;94708.22;5051971;28;20227;-75
2022/07/16 00:34:18;;;;;;;4.22;2.13;;;;;;;18.50;66.76;94705.53;5051747;28;20609;-75
2022/07/16 00:36:46;;;;;;;6.75;2.10;;;;;;;18.43;66.50;94709.03;5052179;28;20208;-75
2022/07/16 00:39:13;;;;;;;3.42;2.15;;;;;;;18.35;66.55;94710.88;5051939;28;20199;-75
2022/07/16 00:41:41;;;;;;;4.13;1.90;;;;;;;18.30;66.76;94705.75;5052485;28;20534;-76
2022/07/16 00:44:12;;;;;;;2.65;2.05;;;;;;;18.32;66.55;94706.13;5051673;28;20229;-76
2022/07/16 00:46:40;;;;;;;2.55;1.80;;;;;;;18.44;65.72;94716.88;5082957;28;20264;-76
2022/07/16 00:49:08;;;;;;;6.72;2.10;;;;;;;18.46;65.46;94709.03;5060681;28;20207;-77
2022/07/16 00:51:39;;;;;;;4.13;2.00;;;;;;;18.44;65.37;94714.13;5056194;28;20252;-76
2022/07/16 00:54:06;;;;;;;3.20;2.10;;;;;;;18.45;65.56;94715.69;5059702;28;20208;-76
2022/07/16 00:56:33;;;;;;;5.15;2.17;;;;;;;18.29;65.61;94717.88;5064021;28;20200;-76
2022/07/16 00:59:00;;;;;;;3.17;1.88;;;;;;;18.35;65.63;94716.34;5063586;28;20657;-76
2022/07/16 01:01:28;;;;;;;2.67;2.10;;;;;;;18.36;65.50;94712.47;5057448;28;20199;-76
2022/07/16 01:03:55;;;;;;;2.22;2.00;;;;;;;18.35;66.37;94712.81;5058763;28;20256;-76
2022/07/16 01:06:23;;;;;;;2.45;1.67;;;;;;;18.24;67.29;94712.72;5063728;28;20488;-76
2022/07/16 01:08:50;;;;;;;4.80;2.35;;;;;;;18.19;67.66;94718.50;5064194;28;20203;-74
2022/07/16 01:11:20;;;;;;;2.15;1.73;;;;;;;18.14;67.20;94713.38;5058153;28;20228;-74
2022/07/16 01:13:48;;;;;;;4.22;2.10;;;;;;;18.13;67.08;94711.81;5057584;28;20698;-75
2022/07/16 01:16:16;;;;;;;2.75;1.70;;;;;;;18.11;66.81;94714.91;5063050;28;20207;-75
2022/07/16 01:18:45;;;;;;;2.55;1.80;;;;;;;18.13;66.12;94721.97;5063948;28;20651;-75
2022/07/16 01:21:13;;;;;;;2.58;1.85;;;;;;;18.11;66.71;94719.59;5050487;28;20257;-75
2022/07/16 01:23:42;;;;;;;2.40;1.85;;;;;;;18.15;66.73;94720.44;5063905;28;20677;-75
2022/07/16 01:26:09;;;;;;;2.35;2.00;;;;;;;18.09;66.78;94716.44;5059443;28;20579;-75
2022/07/16 01:28:36;;;;;;;2.72;1.80;;;;;;;18.08;66.79;94714.84;5054188;28;20597;-75
2022/07/16 01:31:03;;;;;;;4.60;2.40;;;;;;;18.12;66.75;94718.44;5059321;28;20257;-75
2022/07/16 01:33:33;;;;;;;3.30;2.10;;;;;;;18.04;67.33;94714.06;5057394;28;20235;-75
2022/07/16 01:36:02;;;;;;;5.43;1.90;;;;;;;18.04;67.87;94719.53;5060891;28;20751;-75
2022/07/16 01:38:30;;;;;;;3.22;2.00;;;;;;;18.00;68.01;94713.22;5064153;28;20741;-75
2022/07/16 01:40:59;;;;;;;3.80;2.20;;;;;;;18.06;67.24;94717.97;5061059;28;20198;-75
2022/07/16 01:43:30;;;;;;;2.47;1.92;;;;;;;18.10;67.21;94715.28;5056650;28;20215;-75
2022/07/16 01:45:58;;;;;;;3.22;2.40;;;;;;;18.05;67.92;94716.38;5071272;28;20628;-75
2022/07/16 01:48:26;;;;;;;9.93;2.55;;;;;;;17.95;68.09;94721.75;5056931;28;20272;-75
2022/07/16 01:50:55;;;;;;;5.90;2.25;;;;;;;17.97;68.14;94719.44;5059196;28;20667;-76
2022/07/16 01:53:21;;;;;;;4.30;2.55;;;;;;;17.88;68.19;94716.19;5069018;28;20631;-75
2022/07/16 01:55:48;;;;;;;2.85;2.10;;;;;;;17.83;68.10;94719.25;5057959;28;20215;-75
2022/07/16 01:58:17;;;;;;;5.38;2.15;;;;;;;17.77;67.96;94722.28;5063078;28;20260;-75
2022/07/16 02:00:46;;;;;;;2.72;1.95;;;;;;;17.70;69.48;94732.38;5049751;28;20208;-74
2022/07/16 02:03:13;;;;;;;2.65;1.88;;;;;;;17.82;68.51;94723.94;5063467;28;20204;-75
2022/07/16 02:05:41;;;;;;;4.53;2.33;;;;;;;17.86;68.40;94724.78;5063413;28;20730;-75
2022/07/16 02:08:08;;;;;;;3.55;2.00;;;;;;;17.85;68.04;94730.63;5050539;28;20215;-75
2022/07/16 02:10:35;;;;;;;2.65;2.13;;;;;;;17.88;67.92;94732.63;5050294;28;20200;-74
2022/07/16 02:13:02;;;;;;;3.10;2.08;;;;;;;17.80;67.98;94736.41;5063192;28;20232;-77
2022/07/16 02:15:31;;;;;;;8.15;1.88;;;;;;;17.83;68.07;94741.16;5063838;28;20203;-75
2022/07/16 02:17:58;;;;;;;2.78;1.85;;;;;;;17.79;68.34;94745.78;5057645;28;20231;-75
2022/07/16 02:20:25;;;;;;;2.53;1.90;;;;;;;17.75;68.66;94741.06;5056980;28;20241;-74
2022/07/16 02:22:53;;;;;;;2.47;1.75;;;;;;;17.72;68.87;94743.75;5062641;28;20207;-75
2022/07/16 02:25:20;;;;;;;4.10;2.30;;;;;;;17.64;68.75;94751.06;5050695;28;20648;-75
2022/07/16 02:30:34;;;;;;;1.98;1.60;;;;;;;17.52;68.92;94759.47;5066551;28;20778;-76
2022/07/16 02:33:01;;;;;;;4.00;1.90;;;;;;;17.50;69.15;94756.31;5058291;28;20676;-75
2022/07/16 02:35:28;;;;;;;3.90;2.53;;;;;;;17.42;70.17;94760.09;5063269;28;20207;-75
2022/07/16 02:37:55;;;;;;;2.13;1.90;;;;;;;17.46;69.27;94754.69;5061836;28;20207;-75
2022/07/16 02:40:21;;;;;;;2.63;2.00;;;;;;;17.40;70.45;94756.94;5056480;28;20198;-75
2022/07/16 02:42:49;;;;;;;3.28;1.92;;;;;;;17.40;70.54;94759.69;5057612;28;20200;-75
2022/07/16 02:45:15;;;;;;;3.25;2.00;;;;;;;17.44;70.62;94752.31;5062958;28;20666;-75
2022/07/16 02:47:44;;;;;;;3.03;2.28;;;;;;;17.52;70.75;94736.75;5050026;28;20203;-75
2022/07/16 02:50:10;;;;;;;6.90;2.50;;;;;;;17.38;70.58;94749.09;5062597;28;20261;-75
2022/07/16 02:52:38;;;;;;;4.03;2.17;;;;;;;17.35;71.21;94749.84;5061870;28;20230;-75
2022/07/16 02:55:05;;;;;;;3.05;2.25;;;;;;;17.41;70.85;94742.88;5056075;28;20206;-75
2022/07/16 02:57:32;;;;;;;3.28;2.15;;;;;;;17.26;71.71;94751.22;5056612;28;20269;-75
2022/07/16 02:59:59;;;;;;;2.88;2.00;;;;;;;16.99;72.58;94753.94;5062797;28;20544;-75
2022/07/16 03:02:26;;;;;;;2.60;2.40;;;;;;;16.79;73.22;94760.63;5062889;28;20685;-76
2022/07/16 03:04:55;;;;;;;8.63;2.58;;;;;;;16.69;72.81;94761.19;5056597;28;20283;-76
2022/07/16 03:07:21;;;;;;;4.35;2.20;;;;;;;16.84;72.63;94754.84;5056665;28;20206;-76
2022/07/16 03:09:49;;;;;;;5.68;2.47;;;;;;;16.95;72.83;94757.75;5062884;28;20196;-76
2022/07/16 03:12:18;;;;;;;2.42;2.08;;;;;;;17.16;71.56;94758.13;5062801;28;20207;-76
2022/07/16 03:14:45;;;;;;;4.53;2.10;;;;;;;17.42;70.39;94760.09;5049262;28;20688;-76
2022/07/16 03:17:11;;;;;;;2.63;2.20;;;;;;;17.84;69.90;94765.47;5063043;28;20261;-76
2022/07/16 03:19:38;;;;;;;4.28;2.55;;;;;;;18.30;68.19;94766.09;5058084;28;20260;-75
2022/07/16 03:22:07;;;;;;;4.40;2.40;;;;;;;18.91;66.48;94762.06;5056531;28;20739;-76
2022/07/16 03:24:34;;;;;;;3.17;2.28;;;;;;;19.57;64.17;94756.78;5060510;28;20203;-75
2022/07/16 03:27:00;;;;;;;2.17;1.98;;;;;;;20.33;62.48;94763.13;5062533;28;20249;-75
2022/07/16 03:29:28;;;;;;;6.22;2.47;;;;;;;21.03;60.44;94756.31;5059279;28;20248;-76
2022/07/16 03:31:54;;;;;;;3.25;2.40;;;;;;;21.60;57.77;94759.88;5059473;28;20692;-76
2022/07/16 03:34:21;;;;;;;8.00;2.72;;;;;;;21.87;56.91;94762.22;5064301;28;20231;-76
2022/07/16 03:36:48;;;;;;;4.00;2.70;;;;;;;22.22;56.04;94750.38;5068870;28;20191;-75
2022/07/16 03:39:17;;;;;;;7.13;2.85;;;;;;;22.62;55.55;94760.06;5072949;28;20264;-74
2022/07/16 03:41:43;;;;;;;4.28;2.50;;;;;;;23.46;53.05;94757.22;5059640;28;20199;-74
2022/07/16 03:44:12;;;;;;;4.32;2.30;;;;;;;23.94;51.20;94760.00;5062744;28;20223;-75
2022/07/16 03:46:39;;;;;;;3.17;2.40;;;;;;;24.85;49.40;94762.97;5065876;28;20226;-76
2022/07/16 03:49:06;;;;;;;3.58;2.47;;;;;;;25.32;48.40;94755.59;5052875;28;20250;-74
2022/07/16 03:51:33;;;;;;;5.35;3.08;;;;;;;25.83;46.65;94759.94;5066767;28;20207;-75
2022/07/16 03:54:00;;;;;;;3.22;2.90;;;;;;;25.63;47.48;94750.78;5062882;28;20231;-76
2022/07/16 03:56:28;;;;;;;5.32;3.45;;;;;;;26.46;45.02;94757.25;5068535;28;20208;-76
2022/07/16 03:58:55;;;;;;;7.07;2.90;;;;;;;25.83;46.01;94764.72;5062875;28;20199;-76
2022/07/16 04:01:22;;;;;;;3.72;3.10;;;;;;;27.08;43.72;94754.81;5054957;28;20253;-76
2022/07/16 04:03:49;;;;;;;4.22;2.83;;;;;;;26.49;44.34;94755.63;5062294;28;20199;-78
2022/07/16 04:06:16;;;;;;;3.95;3.13;;;;;;;27.68;41.86;94733.16;5059518;28;20615;-76
2022/07/16 04:08:43;;;;;;;4.32;3.08;;;;;;;27.41;42.81;94745.31;5062025;28;20211;-76
2022/07/16 04:11:10;;;;;;;5.18;3.00;;;;;;;27.55;42.98;94742.19;5056645;28;20272;-73
2022/07/16 04:13:40;;;;;;;3.75;2.75;;;;;;;27.89;42.05;94743.75;5061024;28;20235;-73
2022/07/16 04:16:07;;;;;;;4.32;2.60;;;;;;;28.27;39.61;94747.59;5065634;28;20223;-74
2022/07/16 04:18:34;;;;;;;4.75;2.47;;;;;;;27.82;41.40;94750.31;5052307;28;20211;-73
2022/07/16 04:21:01;;;;;;;3.47;2.60;;;;;;;28.68;38.69;94746.06;5065898;28;20207;-73
2022/07/16 04:23:27;;;;;;;3.38;2.70;;;;;;;29.58;36.95;94742.19;5064338;28;20665;-74
2022/07/16 04:25:54;;;;;;;3.22;2.78;;;;;;;30.52;35.44;94739.44;5058236;28;20288;-77
2022/07/16 04:28:21;;;;;;;2.78;2.50;;;;;;;30.77;34.62;94746.94;5060133;28;20631;-78
2022/07/16 04:30:49;;;;;;;2.67;2.47;;;;;;;29.99;35.87;94744.06;5065628;28;20219;-78
2022/07/16 04:33:16;;;;;;;3.67;2.63;;;;;;;30.71;35.48;94748.78;5064185;28;20234;-77
2022/07/16 04:35:43;;;;;;;4.47;3.10;;;;;;;30.57;35.62;94754.88;5052939;28;20199;-78
2022/07/16 04:38:10;;;;;;;8.25;2.90;;;;;;;30.59;36.17;94752.41;5066748;28;20232;-78
2022/07/16 04:40:37;;;;;;;4.45;3.25;;;;;;;30.76;35.93;94750.97;5064833;28;20562;-76
2022/07/16 04:43:03;;;;;;;6.93;3.55;;;;;;;30.87;36.22;94759.78;5057784;28;20560;-72
2022/07/16 04:45:30;;;;;;;4.40;3.38;;;;;;;30.99;36.07;94767.31;5064570;28;20581;-74
2022/07/16 04:47:58;;;;;;;4.63;2.95;;;;;;;30.72;36.53;94772.72;5065218;28;20221;-74
2022/07/16 04:50:25;;;;;;;3.55;3.20;;;;;;;30.39;36.38;94772.25;5059233;28;20584;-73
2022/07/16 04:52:52;;;;;;;4.15;3.42;;;;;;;30.80;35.78;94768.41;5058191;28;20200;-73
2022/07/16 04:55:19;;;;;;;6.40;3.28;;;;;;;30.96;35.89;94775.84;5063673;28;20215;-72
2022/07/16 04:57:46;;;;;;;6.55;3.42;;;;;;;31.04;35.93;94772.31;5064918;28;20248;-74
2022/07/16 05:00:14;;;;;;;6.40;3.33;;;;;;;31.67;34.00;94768.34;5059117;28;20261;-73
2022/07/16 05:02:58;;;;;;;5.93;3.60;;;;;;;30.44;35.14;94773.69;5056975;28;20222;-73
2022/07/16 05:05:30;;;;;;;4.32;3.53;;;;;;;30.27;36.06;94771.06;5060402;28;20192;-76
2022/07/16 05:07:57;;;;;;;5.40;3.20;;;;;;;30.02;36.66;94776.72;5065197;28;20241;-79
2022/07/16 05:10:24;;;;;;;4.32;3.08;;;;;;;31.20;35.39;94767.75;5063167;28;20209;-77
2022/07/16 05:12:51;;;;;;;5.00;3.22;;;;;;;32.25;33.63;94761.22;5057782;28;20294;-78
2022/07/16 05:15:18;;;;;;;4.18;3.38;;;;;;;33.29;31.41;94763.84;5063384;28;20246;-77
2022/07/16 05:17:45;;;;;;;7.45;3.30;;;;;;;33.05;31.23;94766.53;5059982;28;20244;-78
2022/07/16 05:20:13;;;;;;;6.68;3.53;;;;;;;34.31;29.95;94769.38;5058678;28;20669;-78
2022/07/16 05:22:41;;;;;;;4.70;3.28;;;;;;;34.06;29.75;94764.19;5058409;28;20199;-77
2022/07/16 05:25:09;;;;;;;3.65;3.35;;;;;;;34.52;29.39;94771.09;5049919;28;20825;-77
2022/07/16 05:27:37;;;;;;;4.22;3.58;;;;;;;34.86;29.23;94768.97;5050328;28;20206;-79
2022/07/16 05:30:05;;;;;;;5.43;3.30;;;;;;;33.93;31.08;94767.22;5050333;28;20210;-75
2022/07/16 05:32:32;;;;;;;3.92;3.45;;;;;;;34.64;29.60;94762.88;5050595;28;20203;-77
2022/07/16 05:34:59;;;;;;;4.00;3.20;;;;;;;34.19;30.73;94767.53;5050832;28;20604;-77
2022/07/16 05:37:26;;;;;;;4.38;3.15;;;;;;;33.36;31.27;94783.16;5067710;28;20558;-74
2022/07/16 05:39:54;;;;;;;4.22;3.10;;;;;;;33.95;30.20;94766.75;5057867;28;20203;-73
2022/07/16 05:42:21;;;;;;;4.70;3.42;;;;;;;34.70;29.35;94772.22;5052781;28;20204;-76
2022/07/16 05:44:47;;;;;;;4.63;2.90;;;;;;;34.28;29.69;94764.72;5068186;28;20606;-75
2022/07/16 05:47:14;;;;;;;3.83;2.78;;;;;;;35.12;29.45;94772.03;5082247;28;20225;-77
2022/07/16 05:49:41;;;;;;;3.45;2.90;;;;;;;36.23;27.70;94776.72;5057323;28;20203;-76
2022/07/16 05:52:08;;;;;;;6.95;4.10;;;;;;;36.80;27.65;94772.59;5060963;28;20195;-77
2022/07/16 05:54:34;;;;;;;4.53;3.35;;;;;;;36.42;27.14;94777.25;5050093;28;20226;-77
2022/07/16 05:57:03;;;;;;;5.90;3.42;;;;;;;36.94;27.15;94777.41;5059358;28;20563;-76
2022/07/16 05:59:30;;;;;;;6.13;4.03;;;;;;;36.89;27.46;94780.97;5062381;28;20661;-76
2022/07/16 06:01:56;;;;;;;4.82;3.47;;;;;;;36.14;27.67;94787.34;5050017;28;20200;-78
2022/07/16 06:04:23;;;;;;;4.97;3.10;;;;;;;35.64;28.57;94776.06;5051778;28;20573;-76
2022/07/16 06:06:50;;;;;;;6.70;3.20;;;;;;;35.66;28.89;94781.97;5059577;28;20667;-77
2022/07/16 06:09:17;;;;;;;2.97;2.70;;;;;;;35.85;28.79;94785.38;5052821;28;20207;-76
2022/07/16 06:11:44;;;;;;;5.30;3.20;;;;;;;35.69;28.51;94777.38;5059834;28;20490;-78
2022/07/16 06:14:12;;;;;;;7.20;3.25;;;;;;;35.68;29.26;94770.97;5063541;28;20233;-77
2022/07/16 06:16:40;;;;;;;5.28;3.45;;;;;;;36.08;28.58;94769.56;5061034;28;20199;-77
2022/07/16 06:19:07;;;;;;;4.03;3.05;;;;;;;36.82;26.97;94781.38;5057022;28;20203;-75
2022/07/16 06:21:34;;;;;;;4.40;2.78;;;;;;;35.67;28.84;94765.84;5059739;28;20204;-74
2022/07/16 06:24:00;;;;;;;4.15;3.00;;;;;;;34.25;30.57;94779.69;5063552;28;20231;-75
2022/07/16 06:26:27;;;;;;;4.72;2.95;;;;;;;33.63;31.73;94788.72;5060379;28;20280;-76
2022/07/16 06:28:54;;;;;;;3.50;2.72;;;;;;;34.29;29.90;94774.72;5056104;28;20861;-77
2022/07/16 06:31:29;;;;;;;4.93;2.63;;;;;;;33.48;31.30;94776.59;5058586;28;20257;-73
2022/07/16 06:33:56;;;;;;;4.35;2.75;;;;;;;34.11;29.95;94766.34;5063259;28;20215;-75
2022/07/16 06:36:22;;;;;;;3.08;2.80;;;;;;;33.53;30.68;94773.13;5056818;28;20203;-75
2022/07/16 06:38:49;;;;;;;4.85;2.78;;;;;;;33.46;31.56;94767.88;5063494;28;21011;-76
2022/07/16 06:41:17;;;;;;;4.88;2.38;;;;;;;34.18;30.28;94760.34;5062666;28;20203;-74
2022/07/16 06:43:44;;;;;;;3.95;2.83;;;;;;;34.92;29.67;94761.41;5056771;28;20538;-74
2022/07/16 06:46:10;;;;;;;3.17;2.35;;;;;;;35.35;28.59;94764.78;5070383;28;20268;-75
2022/07/16 06:48:39;;;;;;;4.68;2.78;;;;;;;34.95;29.63;94768.91;5056967;28;20256;-76
2022/07/16 06:51:08;;;;;;;4.53;3.10;;;;;;;32.38;32.86;94782.25;5055771;28;20196;-71
2022/07/16 06:53:37;;;;;;;3.20;2.88;;;;;;;32.91;32.53;94775.59;5061853;28;20234;-72
2022/07/16 06:56:04;;;;;;;4.53;3.28;;;;;;;32.12;33.47;94780.91;5063251;28;20302;-74
2022/07/16 06:58:30;;;;;;;4.97;3.20;;;;;;;33.10;32.30;94780.69;5057626;28;20742;-75
2022/07/16 07:00:57;;;;;;;4.03;2.83;;;;;;;32.90;32.80;94783.25;5056150;28;20207;-75
2022/07/16 07:03:24;;;;;;;3.65;2.85;;;;;;;33.62;32.02;94781.56;5063989;28;20336;-75
2022/07/16 07:05:52;;;;;;;3.60;2.85;;;;;;;32.52;33.08;94786.50;5065926;28;20252;-75
2022/07/16 07:08:19;;;;;;;4.28;3.10;;;;;;;31.62;35.42;94782.91;5053522;28;20661;-75
2022/07/16 07:10:46;;;;;;;2.83;2.55;;;;;;;32.70;34.16;94780.09;5067325;28;20199;-75
2022/07/16 07:13:12;;;;;;;3.90;2.65;;;;;;;33.15;33.43;94776.50;5057029;28;20589;-75
2022/07/16 07:15:39;;;;;;;5.80;3.00;;;;;;;32.80;33.52;94778.88;5057138;28;20244;-75
2022/07/16 07:18:06;;;;;;;4.45;2.88;;;;;;;31.99;35.09;94777.47;5066370;28;20615;-75
2022/07/16 07:20:33;;;;;;;4.10;2.78;;;;;;;32.43;34.22;94778.81;5062528;28;20683;-74
2022/07/16 07:23:01;;;;;;;6.40;2.63;;;;;;;32.71;33.45;94773.22;5053325;28;20648;-76
2022/07/16 07:25:28;;;;;;;3.63;2.97;;;;;;;33.48;32.84;94782.22;5066738;28;20241;-77
2022/07/16 07:27:55;;;;;;;4.50;2.90;;;;;;;33.92;32.06;94773.31;5061760;28;20276;-74
2022/07/16 07:30:22;;;;;;;3.63;3.00;;;;;;;32.25;34.15;94781.63;5060178;28;20220;-72
2022/07/16 07:32:48;;;;;;;2.67;2.47;;;;;;;31.85;35.17;94775.22;5063752;28;20196;-77
2022/07/16 07:35:15;;;;;;;3.20;2.60;;;;;;;31.88;35.04;94771.50;5066510;28;20706;-75
2022/07/16 07:37:42;;;;;;;4.43;2.75;;;;;;;31.76;35.71;94771.16;5063272;28;20257;-74
2022/07/16 07:40:11;;;;;;;5.00;3.20;;;;;;;31.43;35.96;94775.69;5059088;28;20203;-75
2022/07/16 07:42:38;;;;;;;2.60;2.40;;;;;;;32.44;34.90;94782.41;5062128;28;20805;-74
2022/07/16 07:45:06;;;;;;;4.30;2.20;;;;;;;30.57;37.61;94785.66;5070606;28;20252;-75
2022/07/16 07:47:33;;;;;;;3.17;2.63;;;;;;;31.28;36.14;94794.28;5060832;28;20253;-76
2022/07/16 07:50:00;;;;;;;2.85;2.60;;;;;;;31.63;35.58;94790.09;5065588;28;20259;-77
2022/07/16 07:52:27;;;;;;;5.53;2.97;;;;;;;30.14;37.67;94789.88;5063894;28;20199;-75
2022/07/16 07:54:54;;;;;;;3.13;2.40;;;;;;;30.65;37.13;94789.75;5058725;28;20276;-76
2022/07/16 07:57:22;;;;;;;3.08;2.20;;;;;;;30.69;36.53;94790.41;5061228;28;20261;-75
2022/07/16 07:59:49;;;;;;;3.33;2.70;;;;;;;29.73;38.21;94792.81;5071452;28;20540;-72
2022/07/16 08:02:16;;;;;;;2.67;2.42;;;;;;;31.14;36.84;94794.81;5060774;28;20211;-76
2022/07/16 08:04:43;;;;;;;7.00;2.85;;;;;;;32.36;34.91;94786.78;5065878;28;20211;-76
2022/07/16 08:07:10;;;;;;;4.07;2.47;;;;;;;33.07;33.54;94781.66;5052264;28;20203;-77
2022/07/16 08:09:37;;;;;;;3.13;2.45;;;;;;;31.28;35.26;94785.88;5065962;28;20231;-72
2022/07/16 08:12:04;;;;;;;3.70;2.78;;;;;;;30.36;36.14;94785.13;5064626;28;20206;-72
2022/07/16 08:14:33;;;;;;;2.97;2.40;;;;;;;31.05;36.67;94787.88;5057901;28;20247;-73
2022/07/16 08:16:59;;;;;;;3.53;2.25;;;;;;;30.09;38.16;94775.69;5059725;28;20207;-77
2022/07/16 08:19:27;;;;;;;6.22;2.50;;;;;;;30.71;36.77;94782.34;5065606;28;20551;-77
2022/07/16 08:21:55;;;;;;;3.25;2.33;;;;;;;31.42;35.12;94779.72;5065391;28;20203;-78
2022/07/16 08:27:06;;;;;;;2.45;2.25;;;;;;;31.75;34.09;94780.81;5056924;28;20202;-79
2022/07/16 08:29:34;;;;;;;2.70;2.35;;;;;;;31.04;35.45;94780.69;5060905;28;20529;-76
2022/07/16 08:32:01;;;;;;;4.68;2.55;;;;;;;31.71;35.11;94774.56;5058832;28;20216;-77
2022/07/16 08:34:28;;;;;;;2.90;2.60;;;;;;;31.34;35.18;94770.81;5062847;28;20334;-78
2022/07/16 08:36:55;;;;;;;4.28;2.67;;;;;;;32.65;33.83;94772.31;5068480;28;20199;-77
2022/07/16 08:39:22;;;;;;;5.72;2.58;;;;;;;32.52;34.13;94769.66;5061113;28;20219;-76
2022/07/16 08:41:50;;;;;;;2.97;2.70;;;;;;;31.54;34.83;94781.66;5065380;28;20203;-75
2022/07/16 08:44:17;;;;;;;2.95;2.60;;;;;;;30.86;36.04;94782.63;5062806;28;20214;-74
2022/07/16 08:46:45;;;;;;;4.57;2.58;;;;;;;31.08;35.36;94783.38;5058220;28;20252;-76
2022/07/16 08:49:12;;;;;;;2.72;2.40;;;;;;;31.78;34.97;94779.91;5059986;28;20923;-74
2022/07/16 08:51:40;;;;;;;3.08;2.50;;;;;;;31.35;34.96;94779.97;5065704;28;20208;-72
2022/07/16 08:54:21;;;;;;;2.83;2.40;;;;;;;30.81;36.79;94775.56;5064168;28;20274;-74
2022/07/16 08:56:49;;;;;;;2.75;2.40;;;;;;;31.81;36.28;94783.03;5059640;28;20233;-75
2022/07/16 08:59:16;;;;;;;3.17;2.80;;;;;;;32.19;35.03;94779.88;5056401;28;20269;-74
2022/07/16 09:01:44;;;;;;;3.67;2.65;;;;;;;33.05;34.20;94775.75;5059449;28;20203;-75
2022/07/16 09:04:12;;;;;;;3.90;2.70;;;;;;;32.23;34.29;94775.69;5057709;28;20207;-75
2022/07/16 09:06:38;;;;;;;5.60;2.70;;;;;;;32.19;34.38;94785.50;5063608;28;20199;-76
2022/07/16 09:09:05;;;;;;;4.57;2.88;;;;;;;31.94;34.52;94792.09;5066090;28;20662;-76
2022/07/16 09:11:34;;;;;;;3.50;2.40;;;;;;;32.44;33.62;94788.81;5063186;28;20210;-76
2022/07/16 09:14:04;;;;;;;4.43;2.80;;;;;;;32.35;33.14;94783.19;5064053;28;20288;-77
2022/07/16 09:16:33;;;;;;;4.75;2.65;;;;;;;32.12;33.63;94783.72;5061189;28;20207;-76
2022/07/16 09:19:06;;;;;;;4.15;2.70;;;;;;;32.10;33.20;94783.44;5054990;28;20744;-75
2022/07/16 09:21:34;;;;;;;2.65;2.38;;;;;;;32.00;33.73;94790.22;5062381;28;20195;-76
2022/07/16 09:24:01;;;;;;;2.95;2.60;;;;;;;31.85;34.20;94783.66;5057639;28;20206;-73
2022/07/16 09:26:29;;;;;;;3.40;2.88;;;;;;;30.92;34.07;94778.75;5058986;28;20235;-75
2022/07/16 09:28:56;;;;;;;4.32;3.53;;;;;;;30.87;35.61;94776.56;5063663;28;20648;-76
2022/07/16 09:31:43;;;;;;;2.60;2.40;;;;;;;31.03;35.70;94770.75;5053399;28;20253;-72
2022/07/16 09:34:13;;;;;;;2.97;2.58;;;;;;;31.53;35.91;94766.06;5050582;28;20642;-73
2022/07/16 09:36:55;;;;;;;3.45;2.70;;;;;;;31.48;33.54;94766.66;5050831;28;20551;-74
2022/07/16 09:39:22;;;;;;;3.22;2.42;;;;;;;31.25;34.56;94769.97;5050863;28;20192;-76
2022/07/16 09:41:49;;;;;;;2.70;2.50;;;;;;;31.73;34.39;94760.09;5050782;28;20253;-77
2022/07/16 09:44:18;;;;;;;2.88;2.67;;;;;;;32.35;33.64;94763.56;5051802;28;20207;-74
2022/07/16 09:47:04;;;;;;;3.00;2.33;;;;;;;32.66;32.72;94759.84;5063994;28;20195;-74
2022/07/16 09:49:36;;;;;;;2.80;2.50;;;;;;;32.90;33.24;94754.38;5064704;28;20607;-76
2022/07/16 09:52:03;;;;;;;4.85;3.08;;;;;;;32.52;33.08;94763.25;5062546;28;20203;-79
2022/07/16 09:54:33;;;;;;;4.25;2.55;;;;;;;31.75;33.95;94752.78;5063734;28;20207;-74
2022/07/16 09:57:13;;;;;;;2.40;2.20;;;;;;;31.89;33.22;94756.25;5059364;28;20336;-79
2022/07/16 09:59:41;;;;;;;5.28;2.63;;;;;;;32.03;33.52;94744.47;5056699;28;20719;-76
2022/07/16 10:02:08;;;;;;;2.90;2.65;;;;;;;32.22;33.99;94746.09;5070467;28;20195;-78
2022/07/16 10:04:36;;;;;;;3.58;2.53;;;;;;;32.53;34.52;94743.13;5056513;28;20199;-77
2022/07/16 10:07:03;;;;;;;3.10;2.80;;;;;;;32.39;33.77;94752.94;5058313;28;20215;-76
2022/07/16 10:09:31;;;;;;;3.25;2.80;;;;;;;32.98;32.66;94733.94;5054976;28;20441;-78
2022/07/16 10:12:02;;;;;;;2.92;2.63;;;;;;;33.55;30.96;94736.91;5057980;28;20607;-76
2022/07/16 10:14:32;;;;;;;2.92;2.42;;;;;;;33.36;31.78;94741.03;5069214;28;20222;-77
2022/07/16 10:17:00;;;;;;;3.58;2.75;;;;;;;32.97;33.74;94735.19;5056527;28;20539;-76
2022/07/16 10:19:36;;;;;;;3.20;2.90;;;;;;;32.59;32.88;94737.69;5063118;28;20308;-75
2022/07/16 10:22:15;;;;;;;2.92;2.60;;;;;;;31.54;33.91;94731.22;5063812;28;20244;-75
2022/07/16 10:24:45;;;;;;;3.78;2.85;;;;;;;31.84;32.26;94732.44;5049548;28;20241;-78
2022/07/16 10:27:21;;;;;;;2.70;2.50;;;;;;;31.76;33.80;94731.16;5063017;28;20214;-75
2022/07/16 10:29:48;;;;;;;2.78;2.50;;;;;;;31.83;33.07;94727.31;5060848;28;20572;-76
2022/07/16 10:32:30;;;;;;;3.60;2.45;;;;;;;32.26;32.22;94718.66;5056288;28;20657;-76
2022/07/16 10:35:01;;;;;;;2.70;2.50;;;;;;;32.56;32.46;94730.19;5056373;28;20715;-74
2022/07/16 10:37:33;;;;;;;5.85;3.00;;;;;;;31.73;32.79;94721.66;5058497;28;20290;-77
2022/07/16 10:40:12;;;;;;;2.72;2.50;;;;;;;31.65;34.42;94725.22;5054718;28;20203;-76
2022/07/16 10:42:39;;;;;;;3.10;2.70;;;;;;;31.47;32.68;94737.09;5055764;28;20196;-75
2022/07/16 10:45:07;;;;;;;2.97;2.60;;;;;;;31.95;32.70;94720.78;5054422;28;20205;-74
2022/07/16 10:47:50;;;;;;;3.13;2.83;;;;;;;31.89;33.63;94728.25;5058149;28;20211;-78
2022/07/16 10:50:23;;;;;;;2.70;2.40;;;;;;;31.99;33.42;94722.19;5057527;28;20206;-75
2022/07/16 10:52:52;;;;;;;3.33;2.47;;;;;;;32.18;31.75;94727.81;5056964;28;20654;-77
2022/07/16 10:55:31;;;;;;;2.60;2.40;;;;;;;32.86;31.99;94720.84;5061198;28;20223;-77
2022/07/16 10:57:58;;;;;;;4.43;2.40;;;;;;;32.98;31.41;94717.09;5063199;28;20638;-76
2022/07/16 11:00:26;;;;;;;4.18;2.63;;;;;;;32.58;31.58;94716.50;5060188;28;20260;-77
2022/07/16 11:02:58;;;;;;;3.47;2.58;;;;;;;32.97;31.58;94718.34;5056144;28;20265;-76
2022/07/16 11:05:27;;;;;;;2.47;2.20;;;;;;;32.99;30.43;94713.03;5058980;28;20195;-77
2022/07/16 11:07:54;;;;;;;2.70;2.50;;;;;;;32.67;31.26;94722.09;5063304;28;20265;-75
2022/07/16 11:10:22;;;;;;;2.47;2.28;;;;;;;32.35;30.97;94715.88;5060410;28;20207;-74
2022/07/16 11:12:49;;;;;;;2.63;2.33;;;;;;;31.75;31.97;94719.19;5064090;28;20903;-76
2022/07/16 11:15:18;;;;;;;3.55;2.05;;;;;;;31.76;32.16;94709.53;5057584;28;20281;-77
2022/07/16 11:17:55;;;;;;;2.30;2.10;;;;;;;31.78;31.88;94707.03;5062799;28;20219;-74
2022/07/16 11:20:33;;;;;;;2.85;2.13;;;;;;;32.11;31.85;94712.09;5062643;28;20604;-74
2022/07/16 11:23:06;;;;;;;4.70;2.38;;;;;;;32.36;32.01;94700.63;5058792;28;20203;-76
2022/07/16 11:25:33;;;;;;;2.90;2.65;;;;;;;32.37;32.73;94704.97;5054802;28;20230;-75
2022/07/16 11:28:02;;;;;;;2.75;2.17;;;;;;;32.04;32.01;94698.38;5058973;28;20891;-79
2022/07/16 11:30:31;;;;;;;2.75;2.08;;;;;;;31.97;32.08;94712.69;5053341;28;20735;-78
2022/07/16 11:32:57;;;;;;;4.90;2.58;;;;;;;32.01;32.29;94705.69;5058338;28;20204;-76
2022/07/16 11:35:24;;;;;;;2.30;2.10;;;;;;;31.71;32.94;94707.31;5062318;28;20234;-76
2022/07/16 11:37:53;;;;;;;2.55;2.35;;;;;;;31.98;32.82;94697.44;5060613;28;20723;-76
2022/07/16 11:40:22;;;;;;;2.47;2.28;;;;;;;32.53;31.09;94703.09;5063221;28;20551;-76
2022/07/16 11:42:59;;;;;;;2.28;2.05;;;;;;;32.46;31.24;94707.00;5055259;28;20294;-73
2022/07/16 11:45:27;;;;;;;5.22;2.55;;;;;;;32.73;31.23;94695.00;5048968;28;20620;-76